Time;durP1;ratioP1;P1;durP2;ratioP2;P2;SDS_P1;SDS_P2;PMS_P1;PMS_P2;Temp;Humidity;BMP_temperature;BMP_pressure;BME280_temperature;BME280_humidity;BME280_pressure;Samples;Min_cycle;Max_cycle;Signal;HPM_P1;HPM_P2
2022/10/14 00:01:04;;;;;;;20.92;19.13;;;16.60;99.90;;;;;;5044948;28;20130;-67
2022/10/14 00:03:30;;;;;;;20.23;18.33;;;16.60;99.90;;;;;;5035702;28;20022;-67
2022/10/14 00:05:56;;;;;;;21.67;19.55;;;16.60;99.90;;;;;;5035762;28;20041;-66
2022/10/14 00:08:22;;;;;;;22.85;20.58;;;16.50;99.90;;;;;;5035548;28;20018;-66
2022/10/14 00:10:48;;;;;;;20.45;18.50;;;16.60;99.90;;;;;;5045178;28;20033;-66
2022/10/14 00:13:13;;;;;;;22.02;19.85;;;16.50;99.90;;;;;;5055823;28;20485;-67
2022/10/14 00:15:40;;;;;;;22.38;20.25;;;16.60;99.90;;;;;;5055811;28;20040;-66
2022/10/14 00:18:07;;;;;;;20.50;18.58;;;16.60;99.90;;;;;;5055406;28;20037;-66
2022/10/14 00:20:33;;;;;;;21.20;19.08;;;16.60;99.90;;;;;;5048220;28;20025;-67
2022/10/14 00:22:59;;;;;;;21.55;19.35;;;16.60;99.90;;;;;;5035414;28;20033;-66
2022/10/14 00:25:26;;;;;;;21.48;19.40;;;16.50;99.90;;;;;;5035530;28;20033;-66
2022/10/14 00:27:53;;;;;;;21.58;19.50;;;16.50;99.90;;;;;;5035602;28;20493;-67
2022/10/14 00:30:18;;;;;;;21.77;19.48;;;16.60;99.90;;;;;;5038673;28;20091;-67
2022/10/14 00:32:44;;;;;;;21.88;19.77;;;16.50;99.90;;;;;;5055200;28;20071;-67
2022/10/14 00:35:10;;;;;;;21.13;18.98;;;16.60;99.90;;;;;;5055388;28;20025;-65
2022/10/14 00:37:35;;;;;;;20.50;18.50;;;16.60;99.90;;;;;;5055055;28;20032;-65
2022/10/14 00:40:01;;;;;;;21.88;19.70;;;16.60;99.90;;;;;;5054794;28;20048;-67
2022/10/14 00:42:27;;;;;;;20.88;18.77;;;16.60;99.90;;;;;;5043208;28;20029;-67
2022/10/14 00:45:02;;;;;;;22.95;20.55;;;16.60;99.90;;;;;;5055250;28;20029;-65
2022/10/14 00:47:29;;;;;;;21.60;19.50;;;16.60;99.90;;;;;;5054982;28;20029;-66
2022/10/14 00:49:55;;;;;;;21.30;19.10;;;16.60;99.90;;;;;;5052947;28;20392;-66
2022/10/14 00:52:23;;;;;;;21.75;19.38;;;16.50;99.90;;;;;;5034842;28;20029;-67
2022/10/14 00:55:06;;;;;;;22.00;19.80;;;16.60;99.90;;;;;;5031596;28;20108;-66
2022/10/14 00:57:32;;;;;;;22.15;19.63;;;16.60;99.90;;;;;;5027601;28;20040;-67
2022/10/14 01:00:16;;;;;;;21.95;19.75;;;16.60;99.90;;;;;;5034377;28;20045;-66
2022/10/14 01:02:41;;;;;;;21.10;18.98;;;16.60;99.90;;;;;;5033399;28;20079;-66
2022/10/14 01:05:10;;;;;;;23.08;20.77;;;16.60;99.90;;;;;;5034630;28;20033;-66
2022/10/14 01:07:41;;;;;;;22.42;20.13;;;16.50;99.90;;;;;;5037211;28;20076;-66
2022/10/14 01:10:34;;;;;;;23.00;20.77;;;16.60;99.90;;;;;;5047117;28;20060;-65
2022/10/14 01:13:28;;;;;;;23.02;20.77;;;16.60;99.90;;;;;;5034640;28;20032;-65
2022/10/14 01:16:06;;;;;;;24.92;21.77;;;16.60;99.90;;;;;;5034715;28;20518;-66
2022/10/14 01:19:13;;;;;;;23.02;20.75;;;16.50;99.90;;;;;;5038357;28;20486;-66
2022/10/14 01:21:47;;;;;;;23.27;20.67;;;16.60;99.90;;;;;;5035413;28;20052;-67
2022/10/14 01:24:42;;;;;;;23.35;20.95;;;16.60;99.90;;;;;;5034694;28;20087;-66
2022/10/14 01:27:31;;;;;;;23.15;20.92;;;16.60;99.90;;;;;;5040049;28;20359;-67
2022/10/14 01:30:07;;;;;;;23.80;21.33;;;16.60;99.90;;;;;;5054483;28;20029;-67
2022/10/14 01:32:58;;;;;;;24.88;22.40;;;16.60;99.90;;;;;;5054154;28;20496;-66
2022/10/14 01:35:49;;;;;;;23.42;21.05;;;16.50;99.90;;;;;;5047299;28;20045;-67
2022/10/14 01:38:41;;;;;;;23.65;21.25;;;16.60;99.90;;;;;;5053914;28;20052;-66
2022/10/14 01:41:19;;;;;;;23.88;21.35;;;16.50;99.90;;;;;;5054242;28;20112;-67
2022/10/14 01:43:48;;;;;;;24.63;22.13;;;16.60;99.90;;;;;;5052040;28;20067;-66
2022/10/14 01:46:15;;;;;;;25.33;21.98;;;16.60;99.90;;;;;;5054233;28;20036;-67
2022/10/14 01:48:45;;;;;;;23.67;21.33;;;16.50;99.90;;;;;;5053677;28;20029;-66
2022/10/14 01:51:16;;;;;;;24.70;22.27;;;16.50;99.90;;;;;;5054002;28;20037;-67
2022/10/14 01:53:48;;;;;;;24.15;21.80;;;16.50;99.90;;;;;;5053621;28;20538;-66
2022/10/14 01:56:16;;;;;;;24.40;22.10;;;16.60;99.90;;;;;;5034096;28;20380;-67
2022/10/14 01:58:44;;;;;;;26.25;21.90;;;16.50;99.90;;;;;;5033806;28;20068;-66
2022/10/14 02:01:10;;;;;;;28.58;24.10;;;16.60;99.90;;;;;;5034022;28;20017;-66
2022/10/14 02:03:41;;;;;;;25.75;23.13;;;16.50;99.90;;;;;;5033114;28;20383;-66
2022/10/14 02:06:18;;;;;;;25.70;23.13;;;16.50;99.90;;;;;;5052953;28;20033;-67
2022/10/14 02:09:21;;;;;;;25.92;23.23;;;16.50;99.90;;;;;;5053537;28;20021;-66
2022/10/14 02:12:06;;;;;;;25.83;23.02;;;16.60;99.90;;;;;;5053655;28;20481;-66
2022/10/14 02:14:56;;;;;;;25.98;23.20;;;16.50;99.90;;;;;;5046776;28;20026;-67
2022/10/14 02:17:33;;;;;;;24.95;22.08;;;16.50;99.90;;;;;;5033561;28;20030;-66
2022/10/14 02:20:07;;;;;;;25.92;23.13;;;16.50;99.90;;;;;;5033500;28;20057;-67
2022/10/14 02:22:50;;;;;;;26.58;23.65;;;16.60;99.90;;;;;;5033320;28;20057;-67
2022/10/14 02:25:22;;;;;;;26.00;23.40;;;16.50;99.90;;;;;;5044956;28;20505;-66
2022/10/14 02:27:50;;;;;;;27.13;24.13;;;16.50;99.90;;;;;;5053177;28;20023;-67
2022/10/14 02:30:17;;;;;;;26.52;22.75;;;16.50;99.90;;;;;;5053384;28;20271;-67
2022/10/14 02:32:44;;;;;;;26.00;23.30;;;16.50;99.90;;;;;;5052839;28;20024;-67
2022/10/14 02:35:11;;;;;;;25.25;22.42;;;16.50;99.90;;;;;;5042186;28;20088;-66
2022/10/14 02:37:38;;;;;;;25.15;22.45;;;16.50;99.90;;;;;;5033097;28;20033;-67
2022/10/14 02:40:07;;;;;;;25.52;21.90;;;16.50;99.90;;;;;;5031857;28;20483;-67
2022/10/14 02:42:33;;;;;;;24.85;22.15;;;16.50;99.90;;;;;;5033504;28;20033;-66
2022/10/14 02:44:59;;;;;;;25.02;22.05;;;16.50;99.90;;;;;;5041006;28;20549;-67
2022/10/14 02:47:26;;;;;;;26.92;22.52;;;16.60;99.90;;;;;;5052729;28;20063;-66
2022/10/14 02:49:52;;;;;;;24.70;21.63;;;16.50;99.90;;;;;;5051548;28;20028;-66
2022/10/14 02:52:19;;;;;;;22.83;20.40;;;16.50;99.90;;;;;;5052907;28;20067;-67
2022/10/14 02:54:44;;;;;;;24.42;21.92;;;16.50;99.90;;;;;;5047368;28;20021;-67
2022/10/14 02:57:10;;;;;;;23.70;21.17;;;16.50;99.90;;;;;;5032837;28;20032;-67
2022/10/14 02:59:36;;;;;;;25.63;20.35;;;16.50;99.90;;;;;;5032143;28;20022;-67
2022/10/14 03:02:02;;;;;;;22.88;20.48;;;16.50;99.90;;;;;;5032712;28;20509;-66
2022/10/14 03:04:28;;;;;;;23.02;20.52;;;16.50;99.90;;;;;;5035085;28;20037;-66
2022/10/14 03:06:53;;;;;;;23.98;21.00;;;16.50;99.90;;;;;;5052745;28;20473;-66
2022/10/14 03:09:19;;;;;;;22.67;19.75;;;16.50;99.90;;;;;;5052690;28;20032;-66
2022/10/14 03:11:45;;;;;;;22.77;20.38;;;16.50;99.90;;;;;;5044682;28;20056;-66
2022/10/14 03:14:11;;;;;;;24.77;20.50;;;16.50;99.90;;;;;;5033658;28;20025;-64
2022/10/14 03:16:36;;;;;;;24.85;21.38;;;16.50;99.90;;;;;;5039361;28;20021;-66
2022/10/14 03:19:02;;;;;;;24.42;21.15;;;16.50;99.90;;;;;;5032614;28;20033;-66
2022/10/14 03:21:27;;;;;;;23.40;20.80;;;16.50;99.90;;;;;;5033636;28;20028;-66
2022/10/14 03:23:53;;;;;;;27.15;21.05;;;16.50;99.90;;;;;;5029418;28;20487;-66
2022/10/14 03:26:19;;;;;;;23.30;20.38;;;16.50;99.90;;;;;;5035485;28;20537;-66
2022/10/14 03:28:44;;;;;;;26.45;21.33;;;16.50;99.90;;;;;;5035627;28;20297;-66
2022/10/14 03:31:10;;;;;;;26.17;21.85;;;16.50;99.90;;;;;;5043556;28;20379;-66
2022/10/14 03:33:36;;;;;;;24.40;21.30;;;16.50;99.90;;;;;;5056474;28;20033;-66
2022/10/14 03:36:02;;;;;;;22.88;19.67;;;16.50;99.90;;;;;;5040186;28;20409;-66
2022/10/14 03:38:27;;;;;;;24.45;21.40;;;16.50;99.90;;;;;;5036172;28;20045;-66
2022/10/14 03:40:53;;;;;;;22.95;20.60;;;16.50;99.90;;;;;;5038698;28;20470;-66
2022/10/14 03:43:19;;;;;;;24.02;20.63;;;16.50;99.90;;;;;;5044858;28;20430;-67
2022/10/14 03:45:45;;;;;;;22.45;19.67;;;16.50;99.90;;;;;;5044331;28;20064;-67
2022/10/14 03:48:11;;;;;;;22.80;20.33;;;16.50;99.90;;;;;;5042327;28;20035;-67
2022/10/14 03:50:36;;;;;;;24.98;21.40;;;16.50;99.90;;;;;;5053979;28;20025;-66
2022/10/14 03:53:02;;;;;;;26.83;21.27;;;16.50;99.90;;;;;;5052252;28;20034;-67
2022/10/14 03:55:28;;;;;;;24.90;20.25;;;16.50;99.90;;;;;;5035678;28;20029;-66
2022/10/14 03:57:54;;;;;;;25.98;21.55;;;16.50;99.90;;;;;;5035483;28;20029;-67
2022/10/14 04:00:20;;;;;;;25.52;20.98;;;16.50;99.90;;;;;;5035880;28;20026;-66
2022/10/14 04:02:46;;;;;;;26.75;21.58;;;16.50;99.90;;;;;;5035918;28;20022;-66
2022/10/14 04:05:12;;;;;;;25.50;21.63;;;16.50;99.90;;;;;;5055751;28;20498;-66
2022/10/14 04:07:37;;;;;;;26.10;21.27;;;16.50;99.90;;;;;;5055723;28;20048;-66
2022/10/14 04:10:03;;;;;;;27.02;22.83;;;16.50;99.90;;;;;;5054717;28;20021;-65
2022/10/14 04:12:29;;;;;;;28.83;22.52;;;16.50;99.90;;;;;;5055854;28;20520;-66
2022/10/14 04:14:56;;;;;;;24.58;21.73;;;16.50;99.90;;;;;;5055023;28;20029;-66
2022/10/14 04:17:22;;;;;;;25.67;22.52;;;16.50;99.90;;;;;;5055766;28;20120;-66
2022/10/14 04:19:48;;;;;;;26.85;22.17;;;16.50;99.90;;;;;;5055819;28;20021;-66
2022/10/14 04:22:14;;;;;;;25.67;20.60;;;16.50;99.90;;;;;;5036489;28;20040;-66
2022/10/14 04:24:39;;;;;;;23.88;19.73;;;16.50;99.90;;;;;;5035741;28;20056;-67
2022/10/14 04:27:05;;;;;;;21.45;18.95;;;16.50;99.90;;;;;;5035783;28;20091;-66
2022/10/14 04:29:31;;;;;;;22.38;19.88;;;16.50;99.90;;;;;;5035488;28;20025;-66
2022/10/14 04:31:56;;;;;;;21.23;18.70;;;16.50;99.90;;;;;;5047621;28;20135;-66
2022/10/14 04:34:22;;;;;;;23.75;19.25;;;16.50;99.90;;;;;;5055382;28;20033;-66
2022/10/14 04:36:47;;;;;;;22.65;20.25;;;16.50;99.90;;;;;;5055078;28;20033;-66
2022/10/14 04:39:14;;;;;;;22.15;19.67;;;16.50;99.90;;;;;;5055456;28;20029;-67
2022/10/14 04:41:40;;;;;;;21.65;19.25;;;16.50;99.90;;;;;;5046501;28;20030;-66
2022/10/14 04:44:05;;;;;;;21.10;18.42;;;16.50;99.90;;;;;;5035313;28;20478;-67
2022/10/14 04:46:31;;;;;;;20.63;18.20;;;16.50;99.90;;;;;;5035035;28;20067;-66
2022/10/14 04:48:57;;;;;;;20.67;18.48;;;16.50;99.90;;;;;;5035333;28;20079;-65
2022/10/14 04:51:23;;;;;;;19.50;17.40;;;16.50;99.90;;;;;;5039472;28;20025;-65
2022/10/14 04:53:49;;;;;;;18.58;16.65;;;16.40;99.90;;;;;;5055004;28;20049;-67
2022/10/14 04:56:14;;;;;;;22.05;17.92;;;16.50;99.90;;;;;;5053719;28;20040;-65
2022/10/14 04:58:40;;;;;;;20.50;16.63;;;16.50;99.90;;;;;;5054627;28;20032;-65
2022/10/14 05:01:06;;;;;;;18.50;16.60;;;16.50;99.90;;;;;;5043804;28;20030;-65
2022/10/14 05:03:31;;;;;;;18.80;16.90;;;16.50;99.90;;;;;;5030247;28;20057;-65
2022/10/14 05:05:57;;;;;;;18.77;16.65;;;16.50;99.90;;;;;;5034050;28;20029;-66
2022/10/14 05:08:23;;;;;;;19.27;16.55;;;16.50;99.90;;;;;;5032758;28;20025;-66
2022/10/14 05:10:48;;;;;;;22.90;17.02;;;16.50;99.90;;;;;;5034756;28;20129;-65
2022/10/14 05:13:14;;;;;;;20.80;15.63;;;16.50;99.90;;;;;;5051582;28;20021;-67
2022/10/14 05:15:40;;;;;;;20.45;15.75;;;16.50;99.90;;;;;;5054398;28;20020;-67
2022/10/14 05:18:05;;;;;;;17.67;14.85;;;16.50;99.90;;;;;;5054444;28;20041;-66
2022/10/14 05:20:31;;;;;;;16.48;14.88;;;16.40;99.90;;;;;;5054633;28;20100;-66
2022/10/14 05:22:57;;;;;;;15.32;13.73;;;16.40;99.90;;;;;;5038864;28;20044;-64
2022/10/14 05:25:22;;;;;;;16.38;14.77;;;16.30;99.90;;;;;;5019698;28;20026;-64
2022/10/14 05:27:48;;;;;;;16.67;14.98;;;16.30;99.90;;;;;;5022942;28;20498;-66
2022/10/14 05:30:14;;;;;;;16.30;14.40;;;16.30;99.90;;;;;;5021462;28;20574;-66
2022/10/14 05:32:39;;;;;;;15.52;13.93;;;16.30;99.90;;;;;;5027054;28;20017;-65
2022/10/14 05:35:05;;;;;;;15.15;12.77;;;16.30;99.90;;;;;;5027915;28;20103;-66
2022/10/14 05:37:31;;;;;;;14.88;13.35;;;16.30;99.90;;;;;;5032957;28;20029;-66
2022/10/14 05:39:57;;;;;;;14.73;12.88;;;16.30;99.90;;;;;;5033332;28;20487;-66
2022/10/14 05:42:22;;;;;;;14.65;13.05;;;16.20;99.90;;;;;;5024386;28;20029;-66
2022/10/14 05:44:48;;;;;;;14.15;12.73;;;16.20;99.90;;;;;;5050100;28;20078;-66
2022/10/14 05:47:14;;;;;;;13.20;11.90;;;16.20;99.90;;;;;;5034642;28;20021;-66
2022/10/14 05:49:39;;;;;;;13.13;11.82;;;16.20;99.90;;;;;;5026096;28;20030;-66
2022/10/14 05:52:08;;;;;;;13.60;12.20;;;16.20;99.90;;;;;;5032093;28;20474;-66
2022/10/14 05:54:33;;;;;;;13.13;11.80;;;16.30;99.90;;;;;;5033231;28;20047;-67
2022/10/14 05:56:59;;;;;;;15.48;11.13;;;16.30;99.90;;;;;;5032992;28;20032;-66
2022/10/14 05:59:25;;;;;;;12.18;10.88;;;16.30;99.90;;;;;;5033705;28;20523;-66
2022/10/14 06:01:50;;;;;;;12.13;10.90;;;16.30;99.90;;;;;;5036049;28;20083;-66
2022/10/14 06:04:20;;;;;;;11.43;10.32;;;16.40;99.90;;;;;;5042194;28;20029;-66
2022/10/14 06:06:46;;;;;;;8.60;6.32;;;16.50;99.90;;;;;;5040845;28;20111;-66
2022/10/14 06:09:11;;;;;;;10.52;6.55;;;16.50;99.90;;;;;;5032595;28;20549;-66
2022/10/14 06:11:37;;;;;;;10.32;7.75;;;16.50;99.90;;;;;;5035256;28;20018;-67
2022/10/14 06:14:03;;;;;;;10.32;8.30;;;16.50;99.90;;;;;;5032177;28;20034;-65
2022/10/14 06:16:29;;;;;;;9.02;7.30;;;16.60;99.90;;;;;;5047921;28;20628;-67
2022/10/14 06:18:54;;;;;;;12.57;11.15;;;16.60;99.90;;;;;;5052366;28;20041;-67
2022/10/14 06:21:20;;;;;;;13.35;8.85;;;16.60;99.90;;;;;;5047166;28;20020;-68
2022/10/14 06:23:46;;;;;;;14.35;10.88;;;16.60;99.90;;;;;;5052780;28;20044;-68
2022/10/14 06:26:12;;;;;;;13.50;9.93;;;16.60;99.90;;;;;;5053177;28;20017;-68
2022/10/14 06:28:38;;;;;;;12.00;9.25;;;16.60;99.90;;;;;;5041932;28;20021;-67
2022/10/14 06:31:04;;;;;;;15.50;11.63;;;16.60;99.90;;;;;;5023364;28;20390;-67
2022/10/14 06:33:30;;;;;;;12.88;9.60;;;16.60;99.90;;;;;;5035416;28;20386;-67
2022/10/14 06:35:56;;;;;;;11.43;10.13;;;16.60;99.90;;;;;;5034478;28;20026;-67
2022/10/14 06:38:22;;;;;;;14.88;10.63;;;16.60;99.90;;;;;;5020578;28;20072;-66
2022/10/14 06:40:53;;;;;;;13.45;11.38;;;16.70;99.90;;;;;;5032499;28;20028;-67
2022/10/14 06:43:20;;;;;;;12.85;9.55;;;16.60;99.90;;;;;;5036090;28;20063;-67
2022/10/14 06:45:48;;;;;;;12.30;9.23;;;16.60;99.90;;;;;;5035222;28;20029;-67
2022/10/14 06:48:14;;;;;;;9.82;8.82;;;16.60;99.90;;;;;;5039049;28;20032;-67
2022/10/14 06:50:41;;;;;;;12.10;9.20;;;16.60;99.90;;;;;;5036917;28;20021;-67
2022/10/14 06:53:07;;;;;;;10.10;8.82;;;16.60;99.90;;;;;;5043222;28;20026;-67
2022/10/14 06:55:33;;;;;;;10.65;9.65;;;16.70;99.90;;;;;;5041784;28;20034;-67
2022/10/14 06:57:58;;;;;;;9.25;8.27;;;16.70;99.90;;;;;;5030281;28;20033;-67
2022/10/14 07:00:24;;;;;;;9.43;8.45;;;16.70;99.90;;;;;;5032538;28;20108;-67
2022/10/14 07:02:49;;;;;;;8.73;7.85;;;16.70;99.90;;;;;;5021554;28;20383;-67
2022/10/14 07:05:15;;;;;;;10.65;8.00;;;16.70;99.90;;;;;;5035033;28;20097;-68
2022/10/14 07:07:41;;;;;;;10.80;7.55;;;16.60;99.90;;;;;;5034339;28;20045;-67
2022/10/14 07:10:07;;;;;;;8.13;7.32;;;16.70;99.90;;;;;;5035215;28;20068;-67
2022/10/14 07:12:33;;;;;;;7.63;6.82;;;16.70;99.90;;;;;;5040413;28;20039;-66
2022/10/14 07:14:58;;;;;;;10.88;8.00;;;16.70;99.90;;;;;;5034192;28;20409;-69
2022/10/14 07:17:24;;;;;;;8.80;6.50;;;16.70;99.90;;;;;;5041605;28;20117;-67
2022/10/14 07:19:49;;;;;;;9.40;7.43;;;16.70;99.90;;;;;;5031444;28;20498;-68
2022/10/14 07:22:16;;;;;;;10.05;7.35;;;16.70;99.90;;;;;;5051600;28;20025;-68
2022/10/14 07:24:42;;;;;;;8.73;7.95;;;16.70;99.90;;;;;;5032236;28;20033;-68
2022/10/14 07:27:09;;;;;;;9.77;7.05;;;16.70;99.90;;;;;;5032432;28;20486;-67
2022/10/14 07:29:35;;;;;;;6.82;6.13;;;16.70;99.90;;;;;;5041300;28;20040;-66
2022/10/14 07:32:01;;;;;;;7.20;6.50;;;16.70;99.90;;;;;;5042426;28;20014;-67
2022/10/14 07:34:26;;;;;;;8.48;7.68;;;16.70;99.90;;;;;;5032577;28;20048;-67
2022/10/14 07:36:52;;;;;;;11.15;8.20;;;16.70;99.90;;;;;;5031608;28;20026;-66
2022/10/14 07:39:17;;;;;;;8.07;6.30;;;16.60;99.90;;;;;;5031975;28;20052;-67
2022/10/14 07:41:43;;;;;;;9.68;7.30;;;16.60;99.90;;;;;;5032353;28;20037;-66
2022/10/14 07:44:12;;;;;;;8.90;7.60;;;16.60;99.90;;;;;;5039137;28;20038;-66
2022/10/14 07:46:41;;;;;;;7.85;6.70;;;16.60;99.90;;;;;;5032499;28;20109;-67
2022/10/14 07:49:14;;;;;;;7.15;6.55;;;16.60;99.90;;;;;;5031297;28;20100;-67
2022/10/14 07:51:40;;;;;;;9.38;8.32;;;16.60;99.90;;;;;;5034707;28;20471;-67
2022/10/14 07:54:08;;;;;;;9.73;8.73;;;16.60;99.90;;;;;;5032004;28;20026;-67
2022/10/14 07:56:39;;;;;;;15.80;11.55;;;16.70;99.90;;;;;;5033585;28;20041;-66
2022/10/14 07:59:04;;;;;;;16.52;13.10;;;16.60;99.90;;;;;;5032075;28;20471;-65
2022/10/14 08:01:30;;;;;;;16.90;11.95;;;16.70;99.90;;;;;;5033088;28;20044;-66
2022/10/14 08:03:56;;;;;;;17.23;11.75;;;16.70;99.90;;;;;;5033768;28;20071;-68
2022/10/14 08:06:22;;;;;;;12.57;10.88;;;16.70;99.90;;;;;;5039431;28;20474;-68
2022/10/14 08:08:48;;;;;;;7.32;6.63;;;16.70;99.90;;;;;;5030573;28;20033;-66
2022/10/14 08:11:17;;;;;;;9.88;7.68;;;16.80;99.90;;;;;;5032816;28;20029;-66
2022/10/14 08:13:43;;;;;;;7.57;5.97;;;16.80;99.90;;;;;;5035199;28;20479;-67
2022/10/14 08:16:23;;;;;;;5.88;5.28;;;16.80;99.90;;;;;;5037983;28;20489;-66
2022/10/14 08:18:50;;;;;;;8.88;7.72;;;16.80;99.90;;;;;;5033700;28;20041;-66
2022/10/14 08:21:17;;;;;;;8.93;7.07;;;16.80;99.90;;;;;;5036424;28;20021;-67
2022/10/14 08:23:43;;;;;;;7.28;6.55;;;16.90;99.90;;;;;;5036677;28;20036;-66
2022/10/14 08:26:19;;;;;;;6.90;6.30;;;16.80;99.90;;;;;;5035149;28;20033;-66
2022/10/14 08:28:46;;;;;;;7.10;6.45;;;16.90;99.90;;;;;;5027074;28;20127;-65
2022/10/14 08:31:12;;;;;;;8.15;5.93;;;16.90;99.90;;;;;;5036465;28;20100;-68
2022/10/14 08:33:39;;;;;;;8.55;6.72;;;16.90;99.90;;;;;;5035833;28;20431;-65
2022/10/14 08:36:05;;;;;;;8.65;7.15;;;16.90;99.90;;;;;;5035402;28;20024;-65
2022/10/14 08:38:30;;;;;;;7.13;6.45;;;16.90;99.90;;;;;;5047925;28;20087;-68
2022/10/14 08:41:11;;;;;;;6.63;4.20;;;16.90;99.90;;;;;;5035116;28;20409;-66
2022/10/14 08:44:12;;;;;;;8.38;5.72;;;16.90;99.90;;;;;;5035432;28;20024;-67
2022/10/14 08:46:43;;;;;;;8.50;5.53;;;17.00;99.90;;;;;;5019421;28;20471;-67
2022/10/14 08:49:26;;;;;;;9.10;7.17;;;17.00;99.90;;;;;;5040723;28;20036;-66
2022/10/14 08:52:11;;;;;;;8.32;7.25;;;17.00;99.90;;;;;;5034838;28;20272;-66
2022/10/14 08:54:43;;;;;;;7.95;7.15;;;17.00;99.90;;;;;;5049215;28;20041;-67
2022/10/14 08:57:17;;;;;;;9.27;7.13;;;17.00;99.90;;;;;;5034818;28;20030;-67
2022/10/14 08:59:43;;;;;;;7.80;6.75;;;17.10;99.90;;;;;;5046290;28;20040;-66
2022/10/14 09:02:37;;;;;;;9.38;6.32;;;17.10;99.90;;;;;;5054874;28;20104;-67
2022/10/14 09:05:04;;;;;;;6.80;6.20;;;17.10;99.90;;;;;;5045245;28;20033;-68
2022/10/14 09:07:31;;;;;;;7.05;6.32;;;17.10;99.90;;;;;;5034542;28;20037;-68
2022/10/14 09:10:06;;;;;;;8.70;6.22;;;17.10;99.90;;;;;;5034662;28;20022;-67
2022/10/14 09:12:34;;;;;;;5.50;5.00;;;17.10;99.90;;;;;;5036755;28;20025;-68
2022/10/14 09:15:06;;;;;;;6.60;6.00;;;17.10;99.90;;;;;;5034653;28;20033;-68
2022/10/14 09:17:42;;;;;;;6.20;5.32;;;17.10;99.90;;;;;;5042006;28;20112;-68
2022/10/14 09:20:36;;;;;;;5.55;4.70;;;17.10;99.90;;;;;;5032543;28;20032;-68
2022/10/14 09:23:23;;;;;;;6.30;4.70;;;17.10;99.90;;;;;;5011634;28;20045;-68
2022/10/14 09:26:04;;;;;;;4.93;4.53;;;17.10;99.90;;;;;;5042965;28;20083;-68
2022/10/14 09:28:36;;;;;;;4.72;4.32;;;17.10;99.90;;;;;;5037654;28;20386;-67
2022/10/14 09:31:04;;;;;;;7.90;4.85;;;17.10;99.90;;;;;;5034617;28;20414;-68
2022/10/14 09:33:30;;;;;;;6.68;4.13;;;17.10;99.90;;;;;;5030507;28;20034;-67
2022/10/14 09:35:56;;;;;;;4.90;3.78;;;17.10;99.90;;;;;;5034151;28;20051;-67
2022/10/14 09:38:24;;;;;;;6.93;3.60;;;17.10;99.90;;;;;;5039763;28;20071;-67
2022/10/14 09:40:55;;;;;;;4.18;3.78;;;17.10;99.90;;;;;;5048854;28;20033;-67
2022/10/14 09:43:23;;;;;;;3.67;3.38;;;17.10;99.90;;;;;;5033479;28;20112;-69
2022/10/14 09:46:09;;;;;;;5.93;3.30;;;17.10;99.90;;;;;;5015978;28;20072;-68
2022/10/14 09:48:48;;;;;;;4.35;3.38;;;17.10;99.90;;;;;;5042517;28;20029;-67
2022/10/14 09:51:19;;;;;;;4.10;3.15;;;17.10;99.90;;;;;;5053732;28;20021;-67
2022/10/14 09:53:56;;;;;;;4.82;2.90;;;17.10;99.90;;;;;;5037832;28;20091;-69
2022/10/14 09:56:38;;;;;;;2.65;2.25;;;17.10;99.90;;;;;;5033446;28;20158;-70
2022/10/14 09:59:23;;;;;;;3.60;3.30;;;17.20;99.90;;;;;;5035980;28;20120;-65
2022/10/14 10:01:59;;;;;;;3.30;3.05;;;17.20;99.90;;;;;;5033692;28;20021;-66
2022/10/14 10:04:30;;;;;;;3.95;3.15;;;17.20;99.90;;;;;;5021478;28;20037;-67
2022/10/14 10:06:58;;;;;;;2.90;2.35;;;17.20;99.90;;;;;;5032316;28;20021;-67
2022/10/14 10:09:25;;;;;;;2.53;1.95;;;17.10;99.90;;;;;;5044778;28;20029;-65
2022/10/14 10:11:51;;;;;;;3.03;2.00;;;17.20;99.90;;;;;;5032030;28;20355;-67
2022/10/14 10:14:22;;;;;;;6.95;2.70;;;17.20;99.90;;;;;;5036154;28;20037;-66
2022/10/14 10:17:12;;;;;;;7.63;2.20;;;17.20;99.90;;;;;;5035208;28;20021;-66
2022/10/14 10:19:43;;;;;;;6.00;2.25;;;17.20;99.90;;;;;;5032525;28;20033;-67
2022/10/14 10:22:18;;;;;;;5.82;2.60;;;17.20;99.90;;;;;;5033108;28;20056;-66
2022/10/14 10:24:45;;;;;;;4.28;2.17;;;17.20;99.90;;;;;;5033155;28;20036;-67
2022/10/14 10:27:19;;;;;;;5.18;3.22;;;17.20;99.90;;;;;;5037937;28;20025;-67
2022/10/14 10:29:45;;;;;;;9.30;4.05;;;17.20;99.90;;;;;;5032956;28;20022;-67
2022/10/14 10:32:18;;;;;;;8.00;4.43;;;17.20;99.90;;;;;;5032469;28;20052;-67
2022/10/14 10:34:55;;;;;;;8.65;4.57;;;17.20;99.90;;;;;;5032711;28;20026;-68
2022/10/14 10:37:32;;;;;;;4.63;3.17;;;17.20;99.90;;;;;;5032778;28;20442;-67
2022/10/14 10:40:04;;;;;;;5.50;4.90;;;17.20;99.90;;;;;;5036575;28;20337;-66
2022/10/14 10:42:30;;;;;;;;;;;17.20;99.90;;;;;;5033517;28;20063;-66
2022/10/14 10:45:23;;;;;;;8.48;5.43;;;17.20;99.90;;;;;;5031798;28;19914;-70
2022/10/14 10:47:52;;;;;;;6.90;5.07;;;17.20;99.90;;;;;;5052537;28;20029;-68
2022/10/14 10:50:27;;;;;;;9.30;5.13;;;17.20;99.90;;;;;;5035830;28;20029;-64
2022/10/14 10:53:24;;;;;;;8.60;4.60;;;17.20;99.90;;;;;;5032708;28;20433;-65
2022/10/14 10:56:03;;;;;;;7.65;5.65;;;17.20;99.90;;;;;;5034408;28;20040;-64
2022/10/14 10:58:50;;;;;;;6.82;5.63;;;17.20;99.90;;;;;;5030084;28;20131;-64
2022/10/14 11:01:37;;;;;;;8.50;4.53;;;17.20;99.90;;;;;;5029945;28;20025;-65
2022/10/14 11:04:26;;;;;;;14.93;7.60;;;17.30;99.90;;;;;;5030304;28;20032;-68
2022/10/14 11:13:25;;;;;;;10.13;5.80;;;17.30;99.90;;;;;;5029848;28;20079;-68
2022/10/14 11:16:27;;;;;;;10.75;8.02;;;17.30;99.90;;;;;;5025903;28;20364;-64
2022/10/14 11:19:03;;;;;;;11.02;5.70;;;17.30;99.90;;;;;;5038228;28;20080;-66
2022/10/14 11:21:32;;;;;;;11.25;4.15;;;17.30;99.90;;;;;;5034647;28;20151;-68
2022/10/14 11:24:36;;;;;;;7.68;4.85;;;17.30;99.90;;;;;;5043885;28;20021;-68
2022/10/14 11:27:12;;;;;;;10.13;8.18;;;17.40;99.90;;;;;;5021153;28;20029;-67
2022/10/14 11:30:00;;;;;;;11.93;10.68;;;17.40;99.90;;;;;;5040368;28;20033;-68
2022/10/14 11:32:52;;;;;;;11.43;8.77;;;17.40;99.90;;;;;;5012667;28;20076;-69
2022/10/14 11:35:33;;;;;;;15.82;7.25;;;17.40;99.90;;;;;;5020965;28;20078;-67
2022/10/14 11:38:16;;;;;;;10.13;8.00;;;17.40;99.90;;;;;;5020754;28;20037;-68
2022/10/14 11:40:50;;;;;;;10.63;6.95;;;17.40;99.90;;;;;;5020097;28;20100;-68
2022/10/14 11:43:48;;;;;;;11.02;6.88;;;17.50;99.90;;;;;;5029105;28;20044;-69
2022/10/14 11:46:21;;;;;;;9.82;6.25;;;17.50;99.90;;;;;;5026583;28;20383;-68
2022/10/14 11:48:54;;;;;;;17.92;7.50;;;17.50;99.90;;;;;;5036052;28;20024;-68
2022/10/14 11:51:30;;;;;;;12.23;8.60;;;17.50;99.90;;;;;;5034495;28;20030;-67
2022/10/14 11:54:10;;;;;;;11.18;7.40;;;17.50;99.90;;;;;;5015928;28;20040;-67
2022/10/14 11:56:41;;;;;;;12.15;8.13;;;17.50;99.90;;;;;;5032353;28;20482;-67
2022/10/14 11:59:45;;;;;;;11.43;7.20;;;17.50;99.90;;;;;;5045141;28;20042;-67
2022/10/14 12:02:15;;;;;;;9.45;6.88;;;17.60;99.90;;;;;;4972149;28;20071;-68
2022/10/14 12:04:44;;;;;;;9.50;7.13;;;17.60;99.90;;;;;;4984051;28;20068;-70
2022/10/14 12:07:16;;;;;;;12.13;7.97;;;17.60;99.90;;;;;;5032852;28;20474;-69
2022/10/14 12:09:45;;;;;;;;;;;17.60;99.90;;;;;;5028732;28;20026;-69
2022/10/14 12:12:16;;;;;;;14.50;10.32;;;17.60;99.90;;;;;;5026457;28;20338;-68
2022/10/14 12:14:51;;;;;;;12.65;10.05;;;17.60;99.90;;;;;;5033770;28;20026;-68
2022/10/14 12:17:22;;;;;;;13.25;10.55;;;17.60;99.90;;;;;;5035850;28;20064;-68
2022/10/14 12:19:50;;;;;;;11.45;10.25;;;17.60;99.90;;;;;;5034082;28;20037;-68
2022/10/14 12:22:21;;;;;;;14.95;12.68;;;17.70;99.90;;;;;;5034852;28;20025;-68
2022/10/14 12:24:53;;;;;;;12.40;10.70;;;17.70;99.90;;;;;;5034763;28;20035;-68
2022/10/14 12:27:22;;;;;;;14.52;12.35;;;17.70;99.90;;;;;;5037856;28;20571;-69
2022/10/14 12:29:49;;;;;;;13.98;12.52;;;17.70;99.90;;;;;;5033258;28;20149;-68
2022/10/14 12:32:15;;;;;;;14.18;12.68;;;17.70;99.90;;;;;;5035139;28;20034;-68
2022/10/14 12:34:45;;;;;;;13.82;12.38;;;17.70;99.90;;;;;;5035130;28;20029;-67
2022/10/14 12:37:33;;;;;;;14.82;12.45;;;17.70;99.90;;;;;;5044063;28;20061;-70
2022/10/14 12:40:02;;;;;;;14.77;13.25;;;17.70;99.90;;;;;;5034348;28;20414;-68
2022/10/14 12:42:29;;;;;;;15.60;14.00;;;17.80;99.90;;;;;;5033415;28;20037;-69
2022/10/14 12:45:00;;;;;;;15.18;13.65;;;17.80;99.90;;;;;;5037952;28;20104;-69
2022/10/14 12:47:35;;;;;;;15.23;13.73;;;17.80;99.90;;;;;;5034014;28;20387;-69
2022/10/14 12:50:24;;;;;;;19.10;17.10;;;17.80;99.90;;;;;;5052743;28;20052;-69
2022/10/14 12:52:59;;;;;;;19.92;17.92;;;17.80;99.90;;;;;;5045121;28;20032;-70
2022/10/14 12:55:28;;;;;;;19.10;17.13;;;17.80;99.90;;;;;;5030540;28;20053;-68
2022/10/14 12:57:57;;;;;;;21.90;19.40;;;17.80;99.90;;;;;;5034175;28;20506;-68
2022/10/14 13:00:22;;;;;;;21.52;19.23;;;17.90;99.90;;;;;;5033318;28;20128;-69